sensor_id;sensor_type;location;lat;lon;timestamp;P1;durP1;ratioP1;P2;durP2;ratioP2
55483;SDS011;41345;51.704;5.146;2023-04-16T00:02:43;57.13;;;53.47;;
55483;SDS011;41345;51.704;5.146;2023-04-16T00:07:43;56.83;;;53.40;;
55483;SDS011;41345;51.704;5.146;2023-04-16T00:12:43;58.95;;;54.83;;
55483;SDS011;41345;51.704;5.146;2023-04-16T00:17:44;57.15;;;52.88;;
55483;SDS011;41345;51.704;5.146;2023-04-16T00:22:44;57.88;;;53.90;;
55483;SDS011;41345;51.704;5.146;2023-04-16T00:27:45;58.00;;;53.33;;
55483;SDS011;41345;51.704;5.146;2023-04-16T00:32:45;59.60;;;55.60;;
55483;SDS011;41345;51.704;5.146;2023-04-16T00:37:45;56.80;;;52.70;;
55483;SDS011;41345;51.704;5.146;2023-04-16T00:42:45;58.70;;;54.78;;
55483;SDS011;41345;51.704;5.146;2023-04-16T00:47:46;59.05;;;55.05;;
55483;SDS011;41345;51.704;5.146;2023-04-16T00:52:47;62.17;;;58.13;;
55483;SDS011;41345;51.704;5.146;2023-04-16T00:57:47;62.63;;;58.42;;
55483;SDS011;41345;51.704;5.146;2023-04-16T01:02:48;60.60;;;56.22;;
55483;SDS011;41345;51.704;5.146;2023-04-16T01:07:49;59.73;;;55.73;;
55483;SDS011;41345;51.704;5.146;2023-04-16T01:12:49;61.75;;;57.40;;
55483;SDS011;41345;51.704;5.146;2023-04-16T01:17:49;61.20;;;56.50;;
55483;SDS011;41345;51.704;5.146;2023-04-16T01:22:50;58.95;;;54.85;;
55483;SDS011;41345;51.704;5.146;2023-04-16T01:27:50;57.28;;;53.42;;
55483;SDS011;41345;51.704;5.146;2023-04-16T01:32:51;58.30;;;54.50;;
55483;SDS011;41345;51.704;5.146;2023-04-16T01:37:51;60.30;;;56.57;;
55483;SDS011;41345;51.704;5.146;2023-04-16T01:42:52;59.70;;;56.13;;
55483;SDS011;41345;51.704;5.146;2023-04-16T01:47:52;56.05;;;52.55;;
55483;SDS011;41345;51.704;5.146;2023-04-16T01:52:52;56.87;;;53.50;;
55483;SDS011;41345;51.704;5.146;2023-04-16T01:57:53;59.17;;;55.40;;
55483;SDS011;41345;51.704;5.146;2023-04-16T02:02:53;58.03;;;54.13;;
55483;SDS011;41345;51.704;5.146;2023-04-16T02:07:53;59.28;;;55.45;;
55483;SDS011;41345;51.704;5.146;2023-04-16T02:12:54;58.80;;;54.88;;
55483;SDS011;41345;51.704;5.146;2023-04-16T02:17:54;59.57;;;55.60;;
55483;SDS011;41345;51.704;5.146;2023-04-16T02:22:55;61.05;;;57.15;;
55483;SDS011;41345;51.704;5.146;2023-04-16T02:27:56;61.22;;;57.03;;
55483;SDS011;41345;51.704;5.146;2023-04-16T02:32:56;61.63;;;57.50;;
55483;SDS011;41345;51.704;5.146;2023-04-16T02:37:57;62.43;;;58.10;;
55483;SDS011;41345;51.704;5.146;2023-04-16T02:42:57;63.75;;;59.25;;
55483;SDS011;41345;51.704;5.146;2023-04-16T02:47:57;62.75;;;58.10;;
55483;SDS011;41345;51.704;5.146;2023-04-16T02:52:58;62.53;;;58.22;;
55483;SDS011;41345;51.704;5.146;2023-04-16T02:57:59;68.07;;;63.10;;
55483;SDS011;41345;51.704;5.146;2023-04-16T03:02:59;63.30;;;58.63;;
55483;SDS011;41345;51.704;5.146;2023-04-16T03:08:00;63.25;;;58.90;;
55483;SDS011;41345;51.704;5.146;2023-04-16T03:13:00;64.05;;;59.72;;
55483;SDS011;41345;51.704;5.146;2023-04-16T03:18:01;64.00;;;59.22;;
55483;SDS011;41345;51.704;5.146;2023-04-16T03:23:01;62.92;;;58.05;;
55483;SDS011;41345;51.704;5.146;2023-04-16T03:28:01;61.83;;;57.17;;
55483;SDS011;41345;51.704;5.146;2023-04-16T03:33:02;65.35;;;60.55;;
55483;SDS011;41345;51.704;5.146;2023-04-16T03:38:03;64.10;;;59.08;;
55483;SDS011;41345;51.704;5.146;2023-04-16T03:43:03;62.90;;;58.03;;
55483;SDS011;41345;51.704;5.146;2023-04-16T03:48:03;62.22;;;57.25;;
55483;SDS011;41345;51.704;5.146;2023-04-16T03:53:04;63.35;;;57.88;;
55483;SDS011;41345;51.704;5.146;2023-04-16T03:58:04;62.87;;;58.23;;
55483;SDS011;41345;51.704;5.146;2023-04-16T04:03:04;65.60;;;60.22;;
55483;SDS011;41345;51.704;5.146;2023-04-16T04:08:05;64.97;;;60.17;;
55483;SDS011;41345;51.704;5.146;2023-04-16T04:13:05;65.00;;;58.90;;
55483;SDS011;41345;51.704;5.146;2023-04-16T04:18:05;65.07;;;60.00;;
55483;SDS011;41345;51.704;5.146;2023-04-16T04:23:06;64.97;;;59.92;;
55483;SDS011;41345;51.704;5.146;2023-04-16T04:28:06;61.40;;;56.70;;
55483;SDS011;41345;51.704;5.146;2023-04-16T04:33:06;73.60;;;68.13;;
55483;SDS011;41345;51.704;5.146;2023-04-16T04:38:07;67.57;;;63.00;;
55483;SDS011;41345;51.704;5.146;2023-04-16T04:43:07;73.60;;;67.97;;
55483;SDS011;41345;51.704;5.146;2023-04-16T04:48:07;72.70;;;67.35;;
55483;SDS011;41345;51.704;5.146;2023-04-16T04:53:08;75.13;;;69.20;;
55483;SDS011;41345;51.704;5.146;2023-04-16T04:58:13;73.32;;;67.63;;
55483;SDS011;41345;51.704;5.146;2023-04-16T05:03:17;71.63;;;66.43;;
55483;SDS011;41345;51.704;5.146;2023-04-16T05:08:18;70.25;;;64.60;;
55483;SDS011;41345;51.704;5.146;2023-04-16T05:13:18;68.53;;;62.97;;
55483;SDS011;41345;51.704;5.146;2023-04-16T05:18:18;66.75;;;62.05;;
55483;SDS011;41345;51.704;5.146;2023-04-16T05:23:19;67.78;;;62.28;;
55483;SDS011;41345;51.704;5.146;2023-04-16T05:28:19;68.72;;;62.92;;
55483;SDS011;41345;51.704;5.146;2023-04-16T05:33:19;63.53;;;58.70;;
55483;SDS011;41345;51.704;5.146;2023-04-16T05:38:20;67.07;;;61.95;;
55483;SDS011;41345;51.704;5.146;2023-04-16T05:43:20;65.53;;;60.67;;
55483;SDS011;41345;51.704;5.146;2023-04-16T05:48:20;64.88;;;59.42;;
55483;SDS011;41345;51.704;5.146;2023-04-16T05:53:21;62.78;;;57.53;;
55483;SDS011;41345;51.704;5.146;2023-04-16T05:58:21;59.83;;;54.83;;
55483;SDS011;41345;51.704;5.146;2023-04-16T06:03:21;64.18;;;59.05;;
55483;SDS011;41345;51.704;5.146;2023-04-16T06:08:22;59.50;;;54.83;;
55483;SDS011;41345;51.704;5.146;2023-04-16T06:13:22;61.35;;;56.25;;
55483;SDS011;41345;51.704;5.146;2023-04-16T06:18:22;61.10;;;55.70;;
55483;SDS011;41345;51.704;5.146;2023-04-16T06:23:23;62.17;;;56.97;;
55483;SDS011;41345;51.704;5.146;2023-04-16T06:28:23;65.18;;;59.72;;
55483;SDS011;41345;51.704;5.146;2023-04-16T06:33:23;60.83;;;55.73;;
55483;SDS011;41345;51.704;5.146;2023-04-16T06:38:24;66.20;;;60.57;;
55483;SDS011;41345;51.704;5.146;2023-04-16T06:43:24;63.42;;;57.67;;
55483;SDS011;41345;51.704;5.146;2023-04-16T06:48:25;62.80;;;56.20;;
55483;SDS011;41345;51.704;5.146;2023-04-16T06:53:25;63.15;;;56.97;;
55483;SDS011;41345;51.704;5.146;2023-04-16T06:58:26;65.03;;;59.17;;
55483;SDS011;41345;51.704;5.146;2023-04-16T07:03:26;64.55;;;58.45;;
55483;SDS011;41345;51.704;5.146;2023-04-16T07:08:26;64.90;;;58.37;;
55483;SDS011;41345;51.704;5.146;2023-04-16T07:13:27;64.97;;;58.13;;
55483;SDS011;41345;51.704;5.146;2023-04-16T07:18:27;63.03;;;57.40;;
55483;SDS011;41345;51.704;5.146;2023-04-16T07:23:27;64.00;;;57.80;;
55483;SDS011;41345;51.704;5.146;2023-04-16T07:28:27;63.47;;;57.35;;
55483;SDS011;41345;51.704;5.146;2023-04-16T07:33:28;64.75;;;59.17;;
55483;SDS011;41345;51.704;5.146;2023-04-16T07:38:28;65.97;;;59.78;;
55483;SDS011;41345;51.704;5.146;2023-04-16T07:43:28;64.10;;;57.78;;
55483;SDS011;41345;51.704;5.146;2023-04-16T07:48:29;64.07;;;58.38;;
55483;SDS011;41345;51.704;5.146;2023-04-16T07:53:29;64.65;;;58.88;;
55483;SDS011;41345;51.704;5.146;2023-04-16T07:58:30;60.93;;;55.70;;
55483;SDS011;41345;51.704;5.146;2023-04-16T08:03:30;66.07;;;59.75;;
55483;SDS011;41345;51.704;5.146;2023-04-16T08:08:30;62.00;;;56.40;;
55483;SDS011;41345;51.704;5.146;2023-04-16T08:13:31;60.72;;;55.55;;
55483;SDS011;41345;51.704;5.146;2023-04-16T08:18:31;65.47;;;59.92;;
55483;SDS011;41345;51.704;5.146;2023-04-16T08:23:31;63.35;;;57.92;;
55483;SDS011;41345;51.704;5.146;2023-04-16T08:28:32;62.65;;;57.30;;
55483;SDS011;41345;51.704;5.146;2023-04-16T08:33:32;65.57;;;59.55;;
55483;SDS011;41345;51.704;5.146;2023-04-16T08:38:32;64.22;;;58.47;;
55483;SDS011;41345;51.704;5.146;2023-04-16T08:43:33;64.65;;;58.85;;
55483;SDS011;41345;51.704;5.146;2023-04-16T08:48:34;65.85;;;60.10;;
55483;SDS011;41345;51.704;5.146;2023-04-16T08:53:47;68.43;;;62.25;;
55483;SDS011;41345;51.704;5.146;2023-04-16T08:58:49;68.18;;;62.38;;
55483;SDS011;41345;51.704;5.146;2023-04-16T09:03:49;65.97;;;60.20;;
55483;SDS011;41345;51.704;5.146;2023-04-16T09:08:50;66.15;;;60.75;;
55483;SDS011;41345;51.704;5.146;2023-04-16T09:13:51;67.38;;;61.78;;
55483;SDS011;41345;51.704;5.146;2023-04-16T09:18:51;65.38;;;59.58;;
55483;SDS011;41345;51.704;5.146;2023-04-16T09:23:52;67.50;;;61.83;;
55483;SDS011;41345;51.704;5.146;2023-04-16T09:28:53;66.43;;;60.35;;
55483;SDS011;41345;51.704;5.146;2023-04-16T09:34:04;66.68;;;60.63;;
55483;SDS011;41345;51.704;5.146;2023-04-16T09:39:04;65.57;;;59.95;;
55483;SDS011;41345;51.704;5.146;2023-04-16T09:44:05;66.60;;;61.10;;
55483;SDS011;41345;51.704;5.146;2023-04-16T09:49:14;64.90;;;59.55;;
55483;SDS011;41345;51.704;5.146;2023-04-16T09:54:15;62.67;;;57.42;;
55483;SDS011;41345;51.704;5.146;2023-04-16T09:59:19;62.43;;;57.40;;
55483;SDS011;41345;51.704;5.146;2023-04-16T10:09:21;60.45;;;55.40;;
55483;SDS011;41345;51.704;5.146;2023-04-16T10:14:21;63.60;;;57.90;;
55483;SDS011;41345;51.704;5.146;2023-04-16T10:19:22;64.88;;;59.38;;
55483;SDS011;41345;51.704;5.146;2023-04-16T10:24:23;63.88;;;58.20;;
55483;SDS011;41345;51.704;5.146;2023-04-16T10:29:24;64.70;;;59.50;;
55483;SDS011;41345;51.704;5.146;2023-04-16T10:34:25;66.25;;;60.80;;
55483;SDS011;41345;51.704;5.146;2023-04-16T10:39:26;64.05;;;58.50;;
55483;SDS011;41345;51.704;5.146;2023-04-16T10:44:27;61.40;;;56.38;;
55483;SDS011;41345;51.704;5.146;2023-04-16T10:49:30;62.15;;;56.72;;
55483;SDS011;41345;51.704;5.146;2023-04-16T10:54:30;66.43;;;61.00;;
55483;SDS011;41345;51.704;5.146;2023-04-16T10:59:32;63.95;;;58.78;;
55483;SDS011;41345;51.704;5.146;2023-04-16T11:04:37;59.85;;;54.63;;
55483;SDS011;41345;51.704;5.146;2023-04-16T11:14:51;64.68;;;59.10;;
55483;SDS011;41345;51.704;5.146;2023-04-16T11:19:51;63.53;;;58.28;;
55483;SDS011;41345;51.704;5.146;2023-04-16T11:24:55;62.30;;;56.90;;
55483;SDS011;41345;51.704;5.146;2023-04-16T11:29:59;60.13;;;54.87;;
55483;SDS011;41345;51.704;5.146;2023-04-16T11:35:00;56.78;;;52.35;;
55483;SDS011;41345;51.704;5.146;2023-04-16T11:40:04;61.10;;;56.13;;
55483;SDS011;41345;51.704;5.146;2023-04-16T11:45:06;57.08;;;52.60;;
55483;SDS011;41345;51.704;5.146;2023-04-16T11:50:23;58.75;;;54.15;;
55483;SDS011;41345;51.704;5.146;2023-04-16T11:55:23;57.25;;;52.47;;
55483;SDS011;41345;51.704;5.146;2023-04-16T12:00:24;55.33;;;51.03;;
55483;SDS011;41345;51.704;5.146;2023-04-16T12:05:37;55.28;;;50.78;;
55483;SDS011;41345;51.704;5.146;2023-04-16T12:10:53;54.22;;;49.78;;
55483;SDS011;41345;51.704;5.146;2023-04-16T12:15:54;60.35;;;55.72;;
55483;SDS011;41345;51.704;5.146;2023-04-16T12:20:55;57.90;;;53.58;;
55483;SDS011;41345;51.704;5.146;2023-04-16T12:25:56;54.77;;;50.70;;
55483;SDS011;41345;51.704;5.146;2023-04-16T12:31:01;57.45;;;52.97;;
55483;SDS011;41345;51.704;5.146;2023-04-16T12:36:15;55.75;;;51.45;;
55483;SDS011;41345;51.704;5.146;2023-04-16T12:41:16;58.42;;;54.03;;
55483;SDS011;41345;51.704;5.146;2023-04-16T12:46:16;59.70;;;55.33;;
55483;SDS011;41345;51.704;5.146;2023-04-16T12:51:16;55.45;;;51.10;;
55483;SDS011;41345;51.704;5.146;2023-04-16T12:56:16;56.90;;;52.20;;
55483;SDS011;41345;51.704;5.146;2023-04-16T13:01:20;56.42;;;51.85;;
55483;SDS011;41345;51.704;5.146;2023-04-16T13:06:21;52.70;;;48.63;;
55483;SDS011;41345;51.704;5.146;2023-04-16T13:11:22;54.77;;;50.40;;
55483;SDS011;41345;51.704;5.146;2023-04-16T13:16:22;56.08;;;51.28;;
55483;SDS011;41345;51.704;5.146;2023-04-16T13:21:22;52.95;;;48.72;;
55483;SDS011;41345;51.704;5.146;2023-04-16T13:26:23;53.43;;;48.87;;
55483;SDS011;41345;51.704;5.146;2023-04-16T13:31:24;54.63;;;49.93;;
55483;SDS011;41345;51.704;5.146;2023-04-16T13:36:25;58.58;;;53.55;;
55483;SDS011;41345;51.704;5.146;2023-04-16T13:41:26;55.08;;;50.42;;
55483;SDS011;41345;51.704;5.146;2023-04-16T13:46:26;54.80;;;49.90;;
55483;SDS011;41345;51.704;5.146;2023-04-16T13:51:27;54.72;;;50.15;;
55483;SDS011;41345;51.704;5.146;2023-04-16T13:56:28;51.83;;;47.38;;
55483;SDS011;41345;51.704;5.146;2023-04-16T14:01:28;57.20;;;52.60;;
55483;SDS011;41345;51.704;5.146;2023-04-16T14:06:29;56.17;;;51.28;;
55483;SDS011;41345;51.704;5.146;2023-04-16T14:11:29;49.97;;;45.88;;
55483;SDS011;41345;51.704;5.146;2023-04-16T14:16:30;52.08;;;47.97;;
55483;SDS011;41345;51.704;5.146;2023-04-16T14:21:30;51.40;;;47.33;;
55483;SDS011;41345;51.704;5.146;2023-04-16T14:26:30;54.53;;;50.10;;
55483;SDS011;41345;51.704;5.146;2023-04-16T14:31:31;53.53;;;49.00;;
55483;SDS011;41345;51.704;5.146;2023-04-16T14:36:32;47.60;;;43.67;;
55483;SDS011;41345;51.704;5.146;2023-04-16T14:41:32;51.08;;;47.00;;
55483;SDS011;41345;51.704;5.146;2023-04-16T14:46:33;53.47;;;48.97;;
55483;SDS011;41345;51.704;5.146;2023-04-16T14:51:33;53.80;;;49.33;;
55483;SDS011;41345;51.704;5.146;2023-04-16T14:56:33;51.70;;;46.80;;
55483;SDS011;41345;51.704;5.146;2023-04-16T15:01:34;53.17;;;48.72;;
55483;SDS011;41345;51.704;5.146;2023-04-16T15:06:35;56.08;;;51.08;;
55483;SDS011;41345;51.704;5.146;2023-04-16T15:11:35;55.97;;;51.35;;
55483;SDS011;41345;51.704;5.146;2023-04-16T15:16:35;53.58;;;48.55;;
55483;SDS011;41345;51.704;5.146;2023-04-16T15:21:36;51.60;;;47.40;;
55483;SDS011;41345;51.704;5.146;2023-04-16T15:26:36;50.95;;;46.42;;
55483;SDS011;41345;51.704;5.146;2023-04-16T15:31:36;50.87;;;46.63;;
55483;SDS011;41345;51.704;5.146;2023-04-16T15:36:37;52.63;;;48.23;;
55483;SDS011;41345;51.704;5.146;2023-04-16T15:41:37;54.65;;;50.10;;
55483;SDS011;41345;51.704;5.146;2023-04-16T15:46:38;53.28;;;48.65;;
55483;SDS011;41345;51.704;5.146;2023-04-16T15:51:38;54.00;;;49.40;;
55483;SDS011;41345;51.704;5.146;2023-04-16T15:56:39;53.90;;;49.50;;
55483;SDS011;41345;51.704;5.146;2023-04-16T16:01:39;52.45;;;47.92;;
55483;SDS011;41345;51.704;5.146;2023-04-16T16:06:39;54.20;;;49.60;;
55483;SDS011;41345;51.704;5.146;2023-04-16T16:11:40;54.05;;;49.28;;
55483;SDS011;41345;51.704;5.146;2023-04-16T16:16:41;58.88;;;53.60;;
55483;SDS011;41345;51.704;5.146;2023-04-16T16:21:41;51.97;;;47.80;;
55483;SDS011;41345;51.704;5.146;2023-04-16T16:26:42;51.67;;;47.15;;
55483;SDS011;41345;51.704;5.146;2023-04-16T16:31:42;50.40;;;46.15;;
55483;SDS011;41345;51.704;5.146;2023-04-16T16:36:44;49.57;;;44.97;;
55483;SDS011;41345;51.704;5.146;2023-04-16T16:41:45;53.97;;;49.53;;
55483;SDS011;41345;51.704;5.146;2023-04-16T16:46:46;53.60;;;49.10;;
55483;SDS011;41345;51.704;5.146;2023-04-16T16:51:47;54.08;;;49.55;;
55483;SDS011;41345;51.704;5.146;2023-04-16T16:56:47;51.38;;;46.75;;
55483;SDS011;41345;51.704;5.146;2023-04-16T17:01:47;55.75;;;50.97;;
55483;SDS011;41345;51.704;5.146;2023-04-16T17:06:47;51.05;;;46.63;;
55483;SDS011;41345;51.704;5.146;2023-04-16T17:11:48;52.88;;;48.20;;
55483;SDS011;41345;51.704;5.146;2023-04-16T17:16:48;48.55;;;44.33;;
55483;SDS011;41345;51.704;5.146;2023-04-16T17:21:49;47.58;;;43.80;;
55483;SDS011;41345;51.704;5.146;2023-04-16T17:26:49;52.05;;;47.30;;
55483;SDS011;41345;51.704;5.146;2023-04-16T17:31:50;52.45;;;47.75;;
55483;SDS011;41345;51.704;5.146;2023-04-16T17:36:50;52.03;;;47.77;;
55483;SDS011;41345;51.704;5.146;2023-04-16T17:41:50;53.22;;;48.53;;
55483;SDS011;41345;51.704;5.146;2023-04-16T17:46:53;51.08;;;46.50;;
55483;SDS011;41345;51.704;5.146;2023-04-16T17:51:54;53.30;;;48.77;;
55483;SDS011;41345;51.704;5.146;2023-04-16T17:56:54;51.60;;;47.13;;
55483;SDS011;41345;51.704;5.146;2023-04-16T18:01:54;54.33;;;49.65;;
55483;SDS011;41345;51.704;5.146;2023-04-16T18:06:55;53.22;;;48.78;;
55483;SDS011;41345;51.704;5.146;2023-04-16T18:11:55;53.58;;;48.97;;
55483;SDS011;41345;51.704;5.146;2023-04-16T18:16:56;51.67;;;47.00;;
55483;SDS011;41345;51.704;5.146;2023-04-16T18:21:57;53.92;;;49.08;;
55483;SDS011;41345;51.704;5.146;2023-04-16T18:26:57;55.55;;;50.75;;
55483;SDS011;41345;51.704;5.146;2023-04-16T18:31:58;54.80;;;50.35;;
55483;SDS011;41345;51.704;5.146;2023-04-16T18:36:58;54.60;;;49.78;;
55483;SDS011;41345;51.704;5.146;2023-04-16T18:41:58;63.08;;;56.53;;
55483;SDS011;41345;51.704;5.146;2023-04-16T18:46:59;61.95;;;56.85;;
55483;SDS011;41345;51.704;5.146;2023-04-16T18:51:59;54.58;;;49.88;;
55483;SDS011;41345;51.704;5.146;2023-04-16T18:57:01;63.08;;;57.63;;
55483;SDS011;41345;51.704;5.146;2023-04-16T19:02:01;59.50;;;54.75;;
55483;SDS011;41345;51.704;5.146;2023-04-16T19:07:02;62.55;;;57.00;;
55483;SDS011;41345;51.704;5.146;2023-04-16T19:12:03;61.75;;;55.95;;
55483;SDS011;41345;51.704;5.146;2023-04-16T19:17:03;65.65;;;60.03;;
55483;SDS011;41345;51.704;5.146;2023-04-16T19:22:03;67.22;;;61.63;;
55483;SDS011;41345;51.704;5.146;2023-04-16T19:27:04;67.23;;;61.43;;
55483;SDS011;41345;51.704;5.146;2023-04-16T19:32:04;66.72;;;60.97;;
55483;SDS011;41345;51.704;5.146;2023-04-16T19:37:04;69.17;;;63.23;;
55483;SDS011;41345;51.704;5.146;2023-04-16T19:42:05;68.35;;;62.22;;
55483;SDS011;41345;51.704;5.146;2023-04-16T19:47:06;69.47;;;63.05;;
55483;SDS011;41345;51.704;5.146;2023-04-16T19:52:06;68.60;;;62.53;;
55483;SDS011;41345;51.704;5.146;2023-04-16T19:57:06;69.93;;;63.67;;
55483;SDS011;41345;51.704;5.146;2023-04-16T20:02:07;70.57;;;63.88;;
55483;SDS011;41345;51.704;5.146;2023-04-16T20:07:07;73.25;;;66.90;;
55483;SDS011;41345;51.704;5.146;2023-04-16T20:12:07;71.20;;;64.68;;
55483;SDS011;41345;51.704;5.146;2023-04-16T20:17:08;71.53;;;65.45;;
55483;SDS011;41345;51.704;5.146;2023-04-16T20:22:08;69.13;;;63.13;;
55483;SDS011;41345;51.704;5.146;2023-04-16T20:27:09;69.75;;;63.50;;
55483;SDS011;41345;51.704;5.146;2023-04-16T20:32:09;67.47;;;61.67;;
55483;SDS011;41345;51.704;5.146;2023-04-16T20:37:10;70.57;;;64.73;;
55483;SDS011;41345;51.704;5.146;2023-04-16T20:42:10;70.03;;;63.63;;
55483;SDS011;41345;51.704;5.146;2023-04-16T20:47:11;71.50;;;65.57;;
55483;SDS011;41345;51.704;5.146;2023-04-16T20:52:12;69.38;;;63.60;;
55483;SDS011;41345;51.704;5.146;2023-04-16T20:57:13;65.38;;;59.75;;
55483;SDS011;41345;51.704;5.146;2023-04-16T21:02:13;71.53;;;65.38;;
55483;SDS011;41345;51.704;5.146;2023-04-16T21:07:13;72.43;;;66.05;;
55483;SDS011;41345;51.704;5.146;2023-04-16T21:12:14;74.22;;;67.50;;
55483;SDS011;41345;51.704;5.146;2023-04-16T21:17:14;74.43;;;67.70;;
55483;SDS011;41345;51.704;5.146;2023-04-16T21:22:15;72.95;;;66.55;;
55483;SDS011;41345;51.704;5.146;2023-04-16T21:27:15;72.53;;;66.38;;
55483;SDS011;41345;51.704;5.146;2023-04-16T21:32:15;75.95;;;68.90;;
55483;SDS011;41345;51.704;5.146;2023-04-16T21:37:16;77.07;;;70.20;;
55483;SDS011;41345;51.704;5.146;2023-04-16T21:42:16;79.27;;;72.33;;
55483;SDS011;41345;51.704;5.146;2023-04-16T21:47:16;79.90;;;72.50;;
55483;SDS011;41345;51.704;5.146;2023-04-16T21:52:17;82.43;;;75.32;;
55483;SDS011;41345;51.704;5.146;2023-04-16T21:57:17;77.13;;;70.27;;
55483;SDS011;41345;51.704;5.146;2023-04-16T22:02:17;77.95;;;70.75;;
55483;SDS011;41345;51.704;5.146;2023-04-16T22:07:18;78.07;;;71.18;;
55483;SDS011;41345;51.704;5.146;2023-04-16T22:12:19;78.50;;;71.20;;
55483;SDS011;41345;51.704;5.146;2023-04-16T22:17:20;81.32;;;73.55;;
55483;SDS011;41345;51.704;5.146;2023-04-16T22:22:20;83.63;;;75.07;;
55483;SDS011;41345;51.704;5.146;2023-04-16T22:27:20;82.30;;;74.32;;
55483;SDS011;41345;51.704;5.146;2023-04-16T22:32:21;84.65;;;76.70;;
55483;SDS011;41345;51.704;5.146;2023-04-16T22:37:21;83.60;;;75.72;;
55483;SDS011;41345;51.704;5.146;2023-04-16T22:42:21;83.03;;;75.18;;
55483;SDS011;41345;51.704;5.146;2023-04-16T22:47:23;85.35;;;77.00;;
55483;SDS011;41345;51.704;5.146;2023-04-16T22:52:23;82.88;;;75.22;;
55483;SDS011;41345;51.704;5.146;2023-04-16T22:57:23;82.73;;;74.70;;
55483;SDS011;41345;51.704;5.146;2023-04-16T23:02:24;84.15;;;76.13;;
55483;SDS011;41345;51.704;5.146;2023-04-16T23:07:24;77.00;;;69.73;;
55483;SDS011;41345;51.704;5.146;2023-04-16T23:12:25;83.97;;;76.38;;
55483;SDS011;41345;51.704;5.146;2023-04-16T23:17:25;81.15;;;73.55;;
55483;SDS011;41345;51.704;5.146;2023-04-16T23:22:26;83.60;;;75.45;;
55483;SDS011;41345;51.704;5.146;2023-04-16T23:27:26;86.97;;;78.55;;
55483;SDS011;41345;51.704;5.146;2023-04-16T23:32:27;85.65;;;77.32;;
55483;SDS011;41345;51.704;5.146;2023-04-16T23:37:27;86.72;;;78.00;;
55483;SDS011;41345;51.704;5.146;2023-04-16T23:42:27;81.47;;;72.85;;
55483;SDS011;41345;51.704;5.146;2023-04-16T23:47:27;83.20;;;75.50;;
55483;SDS011;41345;51.704;5.146;2023-04-16T23:52:28;78.40;;;70.70;;
55483;SDS011;41345;51.704;5.146;2023-04-16T23:57:28;78.73;;;71.17;;
